createdAt,value
2023-05-10T00:00:47.729Z,25.70
2023-05-10T00:03:14.834Z,25.90
2023-05-10T00:05:42.010Z,25.63
2023-05-10T00:08:09.062Z,24.50
2023-05-10T00:10:36.238Z,24.50
2023-05-10T00:13:03.269Z,24.88
2023-05-10T00:15:31.632Z,25.40
2023-05-10T00:17:58.600Z,24.33
2023-05-10T00:20:25.825Z,24.45
2023-05-10T00:22:53.121Z,23.10
2023-05-10T00:25:20.127Z,23.85
2023-05-10T00:27:47.110Z,23.58
2023-05-10T00:30:14.391Z,23.27
2023-05-10T00:32:41.626Z,23.20
2023-05-10T00:35:09.265Z,22.70
2023-05-10T00:37:36.634Z,23.45
2023-05-10T00:40:03.951Z,22.77
2023-05-10T00:42:30.946Z,22.40
2023-05-10T00:44:58.529Z,23.15
2023-05-10T00:47:25.873Z,22.90
2023-05-10T00:49:53.269Z,20.85
2023-05-10T00:52:20.800Z,20.90
2023-05-10T00:54:48.691Z,20.88
2023-05-10T00:57:15.938Z,21.25
2023-05-10T00:59:43.022Z,20.00
2023-05-10T01:02:10.321Z,19.77
2023-05-10T01:04:38.487Z,19.20
2023-05-10T01:07:05.506Z,18.77
2023-05-10T01:09:34.169Z,19.00
2023-05-10T01:12:02.913Z,19.17
2023-05-10T01:14:31.201Z,20.15
2023-05-10T01:16:58.367Z,19.42
2023-05-10T01:19:29.703Z,20.10
2023-05-10T01:22:50.923Z,19.55
2023-05-10T01:25:38.223Z,21.13
2023-05-10T01:28:22.040Z,20.48
2023-05-10T01:31:16.718Z,21.20
2023-05-10T01:34:00.338Z,20.63
2023-05-10T01:36:49.171Z,22.67
2023-05-10T01:39:37.719Z,21.73
2023-05-10T01:42:26.368Z,20.92
2023-05-10T01:45:17.784Z,20.85
2023-05-10T01:47:50.790Z,19.92
2023-05-10T01:50:30.469Z,19.65
2023-05-10T01:53:01.189Z,20.55
2023-05-10T01:55:40.708Z,19.77
2023-05-10T01:58:14.038Z,21.38
2023-05-10T02:00:46.608Z,19.65
2023-05-10T02:03:16.964Z,21.00
2023-05-10T02:05:47.037Z,22.08
2023-05-10T02:08:18.470Z,22.52
2023-05-10T02:10:48.863Z,20.90
2023-05-10T02:13:19.027Z,20.77
2023-05-10T02:15:50.915Z,22.90
2023-05-10T02:18:19.467Z,23.02
2023-05-10T02:20:48.305Z,24.20
2023-05-10T02:23:19.211Z,23.25
2023-05-10T02:25:49.068Z,25.05
2023-05-10T02:28:19.141Z,25.73
2023-05-10T02:30:48.532Z,25.23
2023-05-10T02:33:16.145Z,24.98
2023-05-10T02:35:43.583Z,24.17
2023-05-10T02:38:12.788Z,25.58
2023-05-10T02:40:42.414Z,26.58
2023-05-10T02:43:15.447Z,27.00
2023-05-10T02:45:44.607Z,25.63
2023-05-10T02:48:11.804Z,27.52
2023-05-10T02:50:46.275Z,27.33
2023-05-10T02:53:21.948Z,27.88
2023-05-10T02:55:58.120Z,27.95
2023-05-10T02:58:25.387Z,31.10
2023-05-10T03:00:52.423Z,30.13
2023-05-10T03:03:21.034Z,30.00
2023-05-10T03:05:50.413Z,31.15
2023-05-10T03:08:17.547Z,30.63
2023-05-10T03:11:25.313Z,30.75
2023-05-10T03:14:26.845Z,32.42
2023-05-10T03:17:12.643Z,32.17
2023-05-10T03:19:59.312Z,32.58
2023-05-10T03:22:39.191Z,34.22
2023-05-10T03:25:11.867Z,33.60
2023-05-10T03:27:44.315Z,33.05
2023-05-10T03:30:14.411Z,34.08
2023-05-10T03:32:42.223Z,32.55
2023-05-10T03:35:14.309Z,34.28
2023-05-10T03:37:42.054Z,34.22
2023-05-10T03:40:09.916Z,34.53
2023-05-10T03:42:39.378Z,35.00
2023-05-10T03:45:08.068Z,35.13
2023-05-10T03:47:35.031Z,36.22
2023-05-10T03:50:03.421Z,34.45
2023-05-10T03:52:30.659Z,36.00
2023-05-10T03:54:57.640Z,35.47
2023-05-10T03:57:25.261Z,35.30
2023-05-10T03:59:52.391Z,35.70
2023-05-10T04:02:19.404Z,35.90
2023-05-10T04:04:46.591Z,35.65
2023-05-10T04:07:13.575Z,36.35
2023-05-10T04:09:41.172Z,36.88
2023-05-10T04:12:10.766Z,37.35
2023-05-10T04:14:38.236Z,35.72
2023-05-10T04:17:05.429Z,36.30
2023-05-10T04:19:33.029Z,37.50
2023-05-10T04:22:00.311Z,36.78
2023-05-10T04:24:27.313Z,37.42
2023-05-10T04:26:57.758Z,37.45
2023-05-10T04:29:25.022Z,37.22
2023-05-10T04:31:52.041Z,38.22
2023-05-10T04:34:19.707Z,38.25
2023-05-10T04:36:52.679Z,37.67
2023-05-10T04:39:19.575Z,39.20
2023-05-10T04:41:54.086Z,38.17
2023-05-10T04:44:21.183Z,37.85
2023-05-10T04:46:48.365Z,38.47
2023-05-10T04:49:15.474Z,38.30
2023-05-10T04:51:42.505Z,41.15
2023-05-10T04:54:09.558Z,38.83
2023-05-10T04:56:36.599Z,39.78
2023-05-10T04:59:03.678Z,39.70
2023-05-10T05:01:30.787Z,39.88
2023-05-10T05:03:58.144Z,37.40
2023-05-10T05:06:26.010Z,38.42
2023-05-10T05:08:53.045Z,36.78
2023-05-10T05:11:20.401Z,36.45
2023-05-10T05:13:47.699Z,35.85
2023-05-10T05:16:14.680Z,38.20
2023-05-10T05:18:41.661Z,34.90
2023-05-10T05:21:20.492Z,34.22
2023-05-10T05:23:47.572Z,33.58
2023-05-10T05:26:16.069Z,34.38
2023-05-10T05:28:43.325Z,34.55
2023-05-10T05:31:10.537Z,34.53
2023-05-10T05:33:37.879Z,32.63
2023-05-10T05:36:06.341Z,33.90
2023-05-10T05:38:33.756Z,30.90
2023-05-10T05:41:01.043Z,31.33
2023-05-10T05:43:28.283Z,30.55
2023-05-10T05:45:56.257Z,29.15
2023-05-10T05:48:23.240Z,29.23
2023-05-10T05:50:50.317Z,28.42
2023-05-10T05:53:17.279Z,25.65
2023-05-10T05:55:58.879Z,24.33
2023-05-10T05:58:26.872Z,26.58
2023-05-10T06:00:53.994Z,25.67
2023-05-10T06:03:21.843Z,28.30
2023-05-10T06:05:49.364Z,28.80
2023-05-10T06:08:16.493Z,26.70
2023-05-10T06:10:43.583Z,26.70
2023-05-10T06:13:10.927Z,26.98
2023-05-10T06:15:38.340Z,25.40
2023-05-10T06:18:05.459Z,26.63
2023-05-10T06:20:32.627Z,26.77
2023-05-10T06:22:59.890Z,27.00
2023-05-10T06:25:27.162Z,26.80
2023-05-10T06:27:58.221Z,26.63
2023-05-10T06:30:29.120Z,25.77
2023-05-10T06:32:56.393Z,27.02
2023-05-10T06:35:23.972Z,27.98
2023-05-10T06:37:51.930Z,27.75
2023-05-10T06:40:19.731Z,27.38
2023-05-10T06:42:48.138Z,27.00
2023-05-10T06:45:16.526Z,28.00
2023-05-10T06:47:44.082Z,27.50
2023-05-10T06:50:12.604Z,26.45
2023-05-10T06:52:40.163Z,25.48
2023-05-10T06:55:08.002Z,27.15
2023-05-10T06:57:35.199Z,26.58
2023-05-10T07:00:05.219Z,26.20
2023-05-10T07:02:32.319Z,26.38
2023-05-10T07:05:14.840Z,26.33
2023-05-10T07:07:42.261Z,25.58
2023-05-10T07:10:10.142Z,26.42
2023-05-10T07:12:37.201Z,26.75
2023-05-10T07:15:05.287Z,26.10
2023-05-10T07:17:32.434Z,27.00
2023-05-10T07:19:59.556Z,25.15
2023-05-10T07:22:26.869Z,25.63
2023-05-10T07:24:54.094Z,25.02
2023-05-10T07:27:21.035Z,25.17
2023-05-10T07:29:48.050Z,25.58
2023-05-10T07:32:15.119Z,23.60
2023-05-10T07:34:42.325Z,23.42
2023-05-10T07:37:09.404Z,24.45
2023-05-10T07:39:36.422Z,25.95
2023-05-10T07:42:03.919Z,22.35
2023-05-10T07:44:30.888Z,20.83
2023-05-10T07:46:57.860Z,20.80
2023-05-10T07:49:25.374Z,22.58
2023-05-10T07:51:52.396Z,21.73
2023-05-10T07:54:19.424Z,21.00
2023-05-10T07:56:48.168Z,21.20
2023-05-10T07:59:18.699Z,21.85
2023-05-10T08:01:46.149Z,20.88
2023-05-10T08:04:13.310Z,22.95
2023-05-10T08:06:41.219Z,21.60
2023-05-10T08:09:09.508Z,21.40
2023-05-10T08:11:36.525Z,20.70
2023-05-10T08:14:03.640Z,21.30
2023-05-10T08:16:30.871Z,22.20
2023-05-10T08:18:57.993Z,22.65
2023-05-10T08:21:25.105Z,21.80
2023-05-10T08:23:52.086Z,22.55
2023-05-10T08:26:19.021Z,22.40
2023-05-10T08:28:46.000Z,21.45
2023-05-10T08:31:13.120Z,23.40
2023-05-10T08:33:42.203Z,23.48
2023-05-10T08:36:10.280Z,23.25
2023-05-10T08:38:38.940Z,24.38
2023-05-10T08:41:07.084Z,23.60
2023-05-10T08:43:37.033Z,25.00
2023-05-10T08:46:08.319Z,25.17
2023-05-10T08:48:36.461Z,23.60
2023-05-10T08:51:05.287Z,25.55
2023-05-10T08:53:36.394Z,25.20
2023-05-10T08:56:04.345Z,26.05
2023-05-10T08:58:32.934Z,24.98
2023-05-10T09:01:01.858Z,24.85
2023-05-10T09:03:28.944Z,24.02
2023-05-10T09:05:59.171Z,20.48
2023-05-10T09:08:27.345Z,20.48
2023-05-10T09:10:56.161Z,20.48
2023-05-10T09:13:24.679Z,19.00
2023-05-10T09:15:53.503Z,18.63
2023-05-10T09:18:20.695Z,17.02
2023-05-10T09:20:47.752Z,17.20
2023-05-10T09:23:14.728Z,16.60
2023-05-10T09:25:44.879Z,16.05
2023-05-10T09:28:12.471Z,15.98
2023-05-10T09:30:40.201Z,17.55
2023-05-10T09:33:07.316Z,19.08
2023-05-10T09:35:34.962Z,18.58
2023-05-10T09:38:05.599Z,18.13
2023-05-10T09:40:32.993Z,17.08
2023-05-10T09:43:08.472Z,17.63
2023-05-10T09:45:38.676Z,18.38
2023-05-10T09:48:07.037Z,18.80
2023-05-10T09:50:35.147Z,20.65
2023-05-10T09:53:04.883Z,19.90
2023-05-10T09:55:46.852Z,19.05
2023-05-10T09:58:15.365Z,20.33
2023-05-10T10:00:53.185Z,19.38
2023-05-10T10:03:25.330Z,20.00
2023-05-10T10:05:54.182Z,18.65
2023-05-10T10:08:21.554Z,20.33
2023-05-10T10:10:53.063Z,19.02
2023-05-10T10:13:20.447Z,18.85
2023-05-10T10:15:52.064Z,18.15
2023-05-10T10:18:24.509Z,18.98
2023-05-10T10:20:51.784Z,17.27
2023-05-10T10:23:18.804Z,18.20
2023-05-10T10:25:49.811Z,18.73
2023-05-10T10:28:40.530Z,19.05
2023-05-10T10:31:41.703Z,18.10
2023-05-10T10:34:14.007Z,15.93
2023-05-10T10:36:46.149Z,15.32
2023-05-10T10:39:13.723Z,16.45
2023-05-10T10:41:55.282Z,15.10
2023-05-10T10:44:41.255Z,16.30
2023-05-10T10:47:30.818Z,12.85
2023-05-10T10:50:01.145Z,13.75
2023-05-10T10:52:42.227Z,13.07
2023-05-10T10:55:20.190Z,13.52
2023-05-10T10:58:01.469Z,13.60
2023-05-10T11:00:37.928Z,13.55
2023-05-10T11:03:15.550Z,14.57
2023-05-10T11:05:43.686Z,15.60
2023-05-10T11:08:46.101Z,15.48
2023-05-10T11:11:16.149Z,15.57
2023-05-10T11:13:51.445Z,16.05
2023-05-10T11:16:25.292Z,14.95
2023-05-10T11:19:03.139Z,14.80
2023-05-10T11:21:32.273Z,15.68
2023-05-10T11:24:02.016Z,14.50
2023-05-10T11:26:35.719Z,15.23
2023-05-10T11:29:04.129Z,15.57
2023-05-10T11:31:31.206Z,16.25
2023-05-10T11:34:02.678Z,17.20
2023-05-10T11:36:34.859Z,14.15
2023-05-10T11:39:01.870Z,13.98
2023-05-10T11:41:31.133Z,14.90
2023-05-10T11:43:59.260Z,15.23
2023-05-10T11:46:29.266Z,15.98
2023-05-10T11:49:05.363Z,15.27
2023-05-10T11:51:36.910Z,13.60
2023-05-10T11:54:10.317Z,12.93
2023-05-10T11:56:39.624Z,14.57
2023-05-10T11:59:07.434Z,12.18
2023-05-10T12:01:36.100Z,11.00
2023-05-10T12:04:03.829Z,10.82
2023-05-10T12:06:38.047Z,8.80
2023-05-10T12:09:09.191Z,10.85
2023-05-10T12:11:44.045Z,10.63
2023-05-10T12:14:12.253Z,10.23
2023-05-10T12:16:39.248Z,10.07
2023-05-10T12:19:06.554Z,11.10
2023-05-10T12:21:34.293Z,11.60
2023-05-10T12:24:04.694Z,10.63
2023-05-10T12:26:32.791Z,10.63
2023-05-10T12:29:18.304Z,10.20
2023-05-10T12:31:57.855Z,10.18
2023-05-10T12:34:24.866Z,10.25
2023-05-10T12:36:54.380Z,9.70
2023-05-10T12:39:21.426Z,10.35
2023-05-10T12:41:48.353Z,9.85
2023-05-10T12:44:15.923Z,9.77
2023-05-10T12:46:42.834Z,9.30
2023-05-10T12:49:10.054Z,9.43
2023-05-10T12:51:37.124Z,9.50
2023-05-10T12:54:04.590Z,9.43
2023-05-10T12:56:31.521Z,10.50
2023-05-10T12:58:58.474Z,9.88
2023-05-10T13:01:25.517Z,10.88
2023-05-10T13:03:52.555Z,11.13
2023-05-10T13:06:19.519Z,11.15
2023-05-10T13:08:46.412Z,11.45
2023-05-10T13:11:17.660Z,11.90
2023-05-10T13:13:44.663Z,12.20
2023-05-10T13:16:11.607Z,12.65
2023-05-10T13:18:38.947Z,13.52
2023-05-10T13:21:06.394Z,14.18
2023-05-10T13:23:33.352Z,13.65
2023-05-10T13:26:00.318Z,14.25
2023-05-10T13:28:27.396Z,14.02
2023-05-10T13:30:54.412Z,13.77
2023-05-10T13:33:21.378Z,13.93
2023-05-10T13:35:48.332Z,13.20
2023-05-10T13:38:15.306Z,15.27
2023-05-10T13:40:42.381Z,14.68
2023-05-10T13:43:09.368Z,14.55
2023-05-10T13:45:36.665Z,13.93
2023-05-10T13:48:03.763Z,13.52
2023-05-10T13:50:31.102Z,12.73
2023-05-10T13:52:58.068Z,13.02
2023-05-10T13:55:25.023Z,13.55
2023-05-10T13:57:52.123Z,12.85
2023-05-10T14:00:19.419Z,10.60
2023-05-10T14:02:46.538Z,10.82
2023-05-10T14:05:14.007Z,10.45
2023-05-10T14:07:42.100Z,9.90
2023-05-10T14:10:09.424Z,11.13
2023-05-10T14:12:36.353Z,11.02
2023-05-10T14:15:03.795Z,10.82
2023-05-10T14:17:30.734Z,10.35
2023-05-10T14:19:57.973Z,10.18
2023-05-10T14:22:24.874Z,9.95
2023-05-10T14:24:51.930Z,10.18
2023-05-10T14:27:18.968Z,10.43
2023-05-10T14:29:45.913Z,8.60
2023-05-10T14:32:12.973Z,8.98
2023-05-10T14:34:40.038Z,8.55
2023-05-10T14:37:07.336Z,9.57
2023-05-10T14:39:34.411Z,9.13
2023-05-10T14:42:01.466Z,8.60
2023-05-10T14:44:28.658Z,8.60
2023-05-10T14:46:56.060Z,7.78
2023-05-10T14:49:25.661Z,8.13
2023-05-10T14:51:53.172Z,7.97
2023-05-10T14:54:20.385Z,7.90
2023-05-10T14:56:47.638Z,7.72
2023-05-10T14:59:14.563Z,7.40
2023-05-10T15:01:43.037Z,8.57
2023-05-10T15:04:10.652Z,8.10
2023-05-10T15:06:38.033Z,8.10
2023-05-10T15:09:05.298Z,8.02
2023-05-10T15:11:32.384Z,6.57
2023-05-10T15:13:59.385Z,5.57
2023-05-10T15:16:26.534Z,6.00
2023-05-10T15:18:53.771Z,4.75
2023-05-10T15:21:20.800Z,5.05
2023-05-10T15:23:47.803Z,4.80
2023-05-10T15:26:14.918Z,3.92
2023-05-10T15:28:42.074Z,4.05
2023-05-10T15:31:09.091Z,4.40
2023-05-10T15:33:39.757Z,3.78
2023-05-10T15:36:07.511Z,4.00
2023-05-10T15:38:34.504Z,3.90
2023-05-10T15:41:01.511Z,4.55
2023-05-10T15:43:28.455Z,4.43
2023-05-10T15:45:55.377Z,4.97
2023-05-10T15:48:22.430Z,5.63
2023-05-10T15:50:49.399Z,5.45
2023-05-10T15:53:16.395Z,6.07
2023-05-10T15:55:43.888Z,6.38
2023-05-10T15:58:11.373Z,5.90
2023-05-10T16:00:39.117Z,5.13
2023-05-10T16:03:06.855Z,4.72
2023-05-10T16:05:34.095Z,5.00
2023-05-10T16:08:02.183Z,5.30
2023-05-10T16:10:33.304Z,5.32
2023-05-10T16:13:00.644Z,4.80
2023-05-10T16:15:28.188Z,4.55
2023-05-10T16:17:55.435Z,5.45
2023-05-10T16:20:22.500Z,4.68
2023-05-10T16:22:49.676Z,4.85
2023-05-10T16:25:17.268Z,5.00
2023-05-10T16:27:44.524Z,4.60
2023-05-10T16:30:12.127Z,3.50
2023-05-10T16:32:39.536Z,4.00
2023-05-10T16:35:07.705Z,3.70
2023-05-10T16:37:34.958Z,4.53
2023-05-10T16:40:02.013Z,4.63
2023-05-10T16:42:29.350Z,5.15
2023-05-10T16:44:56.370Z,4.80
2023-05-10T16:47:26.652Z,4.97
2023-05-10T16:49:53.882Z,5.05
2023-05-10T16:52:20.860Z,5.85
2023-05-10T16:54:47.863Z,6.00
2023-05-10T16:57:14.903Z,6.30
2023-05-10T16:59:42.095Z,6.25
2023-05-10T17:02:09.269Z,6.60
2023-05-10T17:04:36.502Z,6.60
2023-05-10T17:07:04.015Z,6.93
2023-05-10T17:09:30.956Z,7.72
2023-05-10T17:11:58.006Z,7.40
2023-05-10T17:14:24.969Z,7.88
2023-05-10T17:16:53.166Z,8.18
2023-05-10T17:19:20.345Z,8.55
2023-05-10T17:21:47.651Z,9.32
2023-05-10T17:24:15.442Z,9.57
2023-05-10T17:26:42.496Z,10.02
2023-05-10T17:29:10.356Z,11.40
2023-05-10T17:31:37.361Z,10.80
2023-05-10T17:34:05.835Z,11.30
2023-05-10T17:36:33.399Z,11.88
2023-05-10T17:39:01.071Z,12.23
2023-05-10T17:41:28.602Z,12.23
2023-05-10T17:43:55.712Z,11.52
2023-05-10T17:46:22.842Z,12.30
2023-05-10T17:48:50.679Z,12.68
2023-05-10T17:51:18.866Z,12.60
2023-05-10T17:53:45.940Z,12.25
2023-05-10T17:56:12.949Z,12.57
2023-05-10T17:58:39.967Z,12.40
2023-05-10T18:01:07.127Z,12.27
2023-05-10T18:03:35.901Z,12.73
2023-05-10T18:06:04.286Z,13.23
2023-05-10T18:08:31.607Z,12.85
2023-05-10T18:10:58.631Z,13.15
2023-05-10T18:13:25.755Z,14.15
2023-05-10T18:15:53.258Z,13.77
2023-05-10T18:18:20.381Z,13.85
2023-05-10T18:20:47.514Z,14.02
2023-05-10T18:23:15.322Z,14.80
2023-05-10T18:25:42.607Z,14.23
2023-05-10T18:28:09.780Z,14.57
2023-05-10T18:30:37.406Z,15.25
2023-05-10T18:33:04.454Z,15.05
2023-05-10T18:35:31.519Z,15.88
2023-05-10T18:37:58.550Z,15.70
2023-05-10T18:40:27.409Z,16.35
2023-05-10T18:42:54.477Z,15.52
2023-05-10T18:45:21.537Z,15.27
2023-05-10T18:47:48.664Z,15.57
2023-05-10T18:50:17.207Z,16.08
2023-05-10T18:52:44.208Z,15.65
2023-05-10T18:55:11.386Z,15.85
2023-05-10T18:57:41.466Z,16.45
2023-05-10T19:00:12.196Z,16.58
2023-05-10T19:02:41.075Z,16.98
2023-05-10T19:05:08.737Z,17.27
2023-05-10T19:07:36.164Z,17.08
2023-05-10T19:10:03.421Z,17.02
2023-05-10T19:12:30.685Z,17.40
2023-05-10T19:14:57.657Z,18.15
2023-05-10T19:17:24.752Z,18.27
2023-05-10T19:19:51.811Z,17.77
2023-05-10T19:22:31.921Z,17.52
2023-05-10T19:25:04.367Z,18.10
2023-05-10T19:27:32.739Z,19.65
2023-05-10T19:30:01.636Z,18.20
2023-05-10T19:32:29.006Z,20.00
2023-05-10T19:34:56.760Z,18.70
2023-05-10T19:37:24.810Z,19.65
2023-05-10T19:39:51.917Z,20.05
2023-05-10T19:42:20.678Z,21.52
2023-05-10T19:44:48.114Z,21.98
2023-05-10T19:47:15.307Z,22.92
2023-05-10T19:49:42.366Z,22.23
2023-05-10T19:52:10.655Z,23.95
2023-05-10T19:54:38.158Z,23.92
2023-05-10T19:57:05.149Z,23.45
2023-05-10T19:59:32.219Z,24.35
2023-05-10T20:01:59.238Z,23.67
2023-05-10T20:04:28.825Z,23.80
2023-05-10T20:06:56.198Z,23.60
2023-05-10T20:09:23.403Z,23.95
2023-05-10T20:11:50.356Z,22.67
2023-05-10T20:14:18.334Z,23.85
2023-05-10T20:16:45.520Z,22.40
2023-05-10T20:19:12.788Z,21.83
2023-05-10T20:21:39.848Z,21.05
2023-05-10T20:24:07.812Z,21.63
2023-05-10T20:26:34.946Z,20.45
2023-05-10T20:29:01.901Z,20.05
2023-05-10T20:31:29.163Z,20.35
2023-05-10T20:33:56.270Z,20.27
2023-05-10T20:36:23.425Z,19.90
2023-05-10T20:38:50.503Z,18.90
2023-05-10T20:41:17.453Z,19.90
2023-05-10T20:43:44.363Z,19.98
2023-05-10T20:46:11.559Z,19.63
2023-05-10T20:48:38.627Z,18.25
2023-05-10T20:51:05.663Z,17.70
2023-05-10T20:53:32.689Z,18.33
2023-05-10T20:55:59.704Z,18.05
2023-05-10T20:58:26.746Z,17.67
2023-05-10T21:00:53.741Z,15.57
2023-05-10T21:03:20.708Z,16.45
2023-05-10T21:05:47.644Z,17.40
2023-05-10T21:08:14.624Z,17.42
2023-05-10T21:10:41.595Z,15.65
2023-05-10T21:13:08.568Z,16.73
2023-05-10T21:15:36.020Z,17.25
2023-05-10T21:18:03.281Z,16.92
2023-05-10T21:20:31.133Z,16.10
2023-05-10T21:22:58.364Z,16.17
2023-05-10T21:25:25.385Z,16.52
2023-05-10T21:27:52.351Z,16.10
2023-05-10T21:30:19.969Z,16.35
2023-05-10T21:32:47.057Z,16.17
2023-05-10T21:35:14.137Z,16.17
2023-05-10T21:37:41.096Z,17.08
2023-05-10T21:40:08.843Z,17.00
2023-05-10T21:42:35.817Z,18.00
2023-05-10T21:45:03.089Z,18.13
2023-05-10T21:47:30.270Z,18.20
2023-05-10T21:49:57.265Z,18.30
2023-05-10T21:52:24.201Z,17.55
2023-05-10T21:54:51.325Z,18.88
2023-05-10T21:57:18.467Z,18.38
2023-05-10T21:59:45.725Z,18.65
2023-05-10T22:02:12.877Z,19.08
2023-05-10T22:04:39.918Z,17.23
2023-05-10T22:07:06.911Z,17.65
2023-05-10T22:09:33.874Z,18.35
2023-05-10T22:12:01.068Z,18.98
2023-05-10T22:14:28.013Z,17.75
2023-05-10T22:16:55.017Z,18.25
2023-05-10T22:19:22.058Z,18.77
2023-05-10T22:21:49.208Z,19.25
2023-05-10T22:24:16.263Z,18.35
2023-05-10T22:26:43.183Z,19.25
2023-05-10T22:29:10.212Z,19.05
2023-05-10T22:31:37.501Z,19.42
2023-05-10T22:34:04.594Z,18.55
2023-05-10T22:36:32.458Z,18.75
2023-05-10T22:38:59.446Z,20.60
2023-05-10T22:41:26.431Z,20.42
2023-05-10T22:43:53.414Z,19.95
2023-05-10T22:46:20.391Z,20.17
2023-05-10T22:48:48.463Z,21.10
2023-05-10T22:51:15.465Z,20.00
2023-05-10T22:53:42.501Z,21.15
2023-05-10T22:56:09.692Z,20.80
2023-05-10T22:58:36.885Z,20.58
2023-05-10T23:01:04.075Z,21.30
2023-05-10T23:03:31.175Z,21.27
2023-05-10T23:05:58.157Z,20.80
2023-05-10T23:08:26.312Z,20.42
2023-05-10T23:10:53.317Z,21.60
2023-05-10T23:13:21.755Z,21.52
2023-05-10T23:15:48.808Z,22.17
2023-05-10T23:18:15.848Z,22.00
2023-05-10T23:20:43.216Z,21.58
2023-05-10T23:23:10.979Z,21.35
2023-05-10T23:25:38.628Z,22.38
2023-05-10T23:28:05.786Z,22.40
2023-05-10T23:30:32.881Z,20.50
2023-05-10T23:32:59.919Z,22.30
2023-05-10T23:35:27.255Z,22.65
2023-05-10T23:37:54.568Z,22.58
2023-05-10T23:40:21.588Z,22.77
2023-05-10T23:42:48.575Z,23.00
2023-05-10T23:45:15.662Z,22.55
2023-05-10T23:47:42.756Z,23.60
2023-05-10T23:50:10.669Z,23.40
2023-05-10T23:52:37.646Z,23.65
2023-05-10T23:55:05.126Z,23.73
2023-05-10T23:57:32.098Z,24.98
2023-05-10T23:59:59.026Z,24.58
